sensor_id;sensor_type;location;lat;lon;timestamp;pressure;altitude;pressure_sealevel;temperature;humidity
16431;BME280;8325;49.284;7.238;2023-01-16T05:03:40;96591.34;;;3.48;89.17
16431;BME280;8325;49.284;7.238;2023-01-16T05:07:52;96559.19;;;3.51;89.78
16431;BME280;8325;49.284;7.238;2023-01-16T05:12:22;96543.34;;;3.54;89.66
16431;BME280;8325;49.284;7.238;2023-01-16T05:16:34;96526.25;;;3.53;89.16
16431;BME280;8325;49.284;7.238;2023-01-16T05:20:47;96509.44;;;3.57;88.68
16431;BME280;8325;49.284;7.238;2023-01-16T05:24:59;96481.84;;;3.57;88.21
16431;BME280;8325;49.284;7.238;2023-01-16T05:29:11;96464.81;;;3.63;87.62
16431;BME280;8325;49.284;7.238;2023-01-16T05:33:23;96452.09;;;3.61;87.30
16431;BME280;8325;49.284;7.238;2023-01-16T05:37:34;96436.53;;;3.69;87.22
16431;BME280;8325;49.284;7.238;2023-01-16T05:41:46;96418.44;;;3.69;86.15
16431;BME280;8325;49.284;7.238;2023-01-16T05:45:57;96416.66;;;3.70;85.47
16431;BME280;8325;49.284;7.238;2023-01-16T05:50:09;96400.81;;;3.73;85.41
16431;BME280;8325;49.284;7.238;2023-01-16T05:54:21;96387.91;;;3.73;85.68
16431;BME280;8325;49.284;7.238;2023-01-16T05:58:32;96390.34;;;3.81;85.30
16431;BME280;8325;49.284;7.238;2023-01-16T06:02:44;96383.16;;;3.77;85.52
16431;BME280;8325;49.284;7.238;2023-01-16T06:06:57;96361.50;;;3.56;85.99
16431;BME280;8325;49.284;7.238;2023-01-16T06:11:09;96363.03;;;3.51;86.43
16431;BME280;8325;49.284;7.238;2023-01-16T06:15:20;96349.50;;;3.49;86.45
16431;BME280;8325;49.284;7.238;2023-01-16T06:19:32;96338.31;;;3.41;86.00
16431;BME280;8325;49.284;7.238;2023-01-16T06:23:43;96336.31;;;3.22;86.80
16431;BME280;8325;49.284;7.238;2023-01-16T06:27:55;96337.38;;;3.28;86.99
16431;BME280;8325;49.284;7.238;2023-01-16T06:32:06;96324.22;;;3.22;87.17
16431;BME280;8325;49.284;7.238;2023-01-16T06:36:18;96306.56;;;3.26;86.96
16431;BME280;8325;49.284;7.238;2023-01-16T06:40:29;96294.91;;;3.09;87.04
16431;BME280;8325;49.284;7.238;2023-01-16T06:44:41;96286.97;;;3.10;87.16
16431;BME280;8325;49.284;7.238;2023-01-16T06:48:52;96283.84;;;3.15;86.92
16431;BME280;8325;49.284;7.238;2023-01-16T06:53:04;96265.19;;;3.13;87.40
16431;BME280;8325;49.284;7.238;2023-01-16T06:57:15;96245.16;;;3.15;87.10
16431;BME280;8325;49.284;7.238;2023-01-16T07:01:27;96239.44;;;3.19;86.84
16431;BME280;8325;49.284;7.238;2023-01-16T07:05:39;96239.69;;;3.25;86.31
16431;BME280;8325;49.284;7.238;2023-01-16T07:09:50;96235.75;;;3.29;85.78
16431;BME280;8325;49.284;7.238;2023-01-16T07:14:02;96241.47;;;3.24;87.47
16431;BME280;8325;49.284;7.238;2023-01-16T07:18:33;96213.09;;;3.24;87.97
16431;BME280;8325;49.284;7.238;2023-01-16T07:23:25;96197.63;;;3.24;90.27
16431;BME280;8325;49.284;7.238;2023-01-16T07:27:38;96186.94;;;3.27;91.41
16431;BME280;8325;49.284;7.238;2023-01-16T07:31:51;96156.47;;;3.16;93.46
16431;BME280;8325;49.284;7.238;2023-01-16T07:36:03;96174.09;;;3.12;95.26
16431;BME280;8325;49.284;7.238;2023-01-16T07:40:14;96179.19;;;3.06;97.36
16431;BME280;8325;49.284;7.238;2023-01-16T07:44:26;96168.31;;;3.10;97.28
16431;BME280;8325;49.284;7.238;2023-01-16T07:48:37;96167.22;;;2.98;98.53
16431;BME280;8325;49.284;7.238;2023-01-16T07:52:49;96163.94;;;2.89;99.92
16431;BME280;8325;49.284;7.238;2023-01-16T07:57:00;96162.31;;;2.82;99.74
16431;BME280;8325;49.284;7.238;2023-01-16T08:01:12;96154.63;;;2.67;100.00
16431;BME280;8325;49.284;7.238;2023-01-16T08:05:23;96126.88;;;2.69;100.00
16431;BME280;8325;49.284;7.238;2023-01-16T08:09:35;96118.59;;;2.73;100.00
16431;BME280;8325;49.284;7.238;2023-01-16T08:13:48;96104.75;;;2.74;100.00
16431;BME280;8325;49.284;7.238;2023-01-16T08:17:59;96086.69;;;2.74;100.00
16431;BME280;8325;49.284;7.238;2023-01-16T08:22:11;96077.41;;;2.80;100.00
16431;BME280;8325;49.284;7.238;2023-01-16T08:26:22;96070.28;;;2.82;100.00
16431;BME280;8325;49.284;7.238;2023-01-16T08:30:34;96058.97;;;2.83;100.00
16431;BME280;8325;49.284;7.238;2023-01-16T08:34:45;96051.00;;;2.99;100.00
16431;BME280;8325;49.284;7.238;2023-01-16T08:38:57;96052.56;;;3.00;100.00
16431;BME280;8325;49.284;7.238;2023-01-16T08:43:09;96051.59;;;3.02;100.00
16431;BME280;8325;49.284;7.238;2023-01-16T08:47:39;96039.56;;;3.09;100.00
16431;BME280;8325;49.284;7.238;2023-01-16T08:52:10;96023.50;;;3.13;100.00
16431;BME280;8325;49.284;7.238;2023-01-16T08:56:22;96014.63;;;3.22;100.00
16431;BME280;8325;49.284;7.238;2023-01-16T09:00:34;96011.69;;;3.32;100.00
16431;BME280;8325;49.284;7.238;2023-01-16T09:04:46;95999.69;;;3.46;100.00
16431;BME280;8325;49.284;7.238;2023-01-16T09:08:58;95990.59;;;3.57;100.00
16431;BME280;8325;49.284;7.238;2023-01-16T09:13:10;95991.03;;;3.67;100.00
16431;BME280;8325;49.284;7.238;2023-01-16T09:17:40;95984.88;;;3.68;100.00
16431;BME280;8325;49.284;7.238;2023-01-16T09:21:52;95992.28;;;3.84;100.00
16431;BME280;8325;49.284;7.238;2023-01-16T09:26:04;95987.09;;;3.84;99.96
16431;BME280;8325;49.284;7.238;2023-01-16T09:30:16;95985.53;;;3.90;99.62
16431;BME280;8325;49.284;7.238;2023-01-16T09:34:27;95978.59;;;3.97;98.96
16431;BME280;8325;49.284;7.238;2023-01-16T09:38:39;95973.44;;;3.97;98.84
16431;BME280;8325;49.284;7.238;2023-01-16T09:47:28;95941.47;;;4.05;97.22
16431;BME280;8325;49.284;7.238;2023-01-16T09:51:45;95941.47;;;4.11;96.35
16431;BME280;8325;49.284;7.238;2023-01-16T09:56:20;95923.59;;;4.10;96.95
16431;BME280;8325;49.284;7.238;2023-01-16T10:00:51;95921.03;;;4.23;96.29
16431;BME280;8325;49.284;7.238;2023-01-16T10:05:04;95902.94;;;4.23;95.81
16431;BME280;8325;49.284;7.238;2023-01-16T10:09:39;95887.03;;;4.33;95.03
16431;BME280;8325;49.284;7.238;2023-01-16T10:18:27;95866.75;;;4.36;94.61
16431;BME280;8325;49.284;7.238;2023-01-16T10:31:41;95824.53;;;4.69;92.27
16431;BME280;8325;49.284;7.238;2023-01-16T10:35:55;95810.59;;;4.70;92.52
16431;BME280;8325;49.284;7.238;2023-01-16T10:44:35;95805.38;;;4.90;90.50
16431;BME280;8325;49.284;7.238;2023-01-16T10:49:13;95776.38;;;4.81;91.00
16431;BME280;8325;49.284;7.238;2023-01-16T10:53:39;95771.94;;;4.89;90.49
16431;BME280;8325;49.284;7.238;2023-01-16T10:57:53;95770.75;;;4.91;90.26
16431;BME280;8325;49.284;7.238;2023-01-16T11:02:17;95756.91;;;5.11;88.34
16431;BME280;8325;49.284;7.238;2023-01-16T11:06:32;95736.41;;;5.16;88.33
16431;BME280;8325;49.284;7.238;2023-01-16T11:10:47;95722.81;;;5.27;86.64
16431;BME280;8325;49.284;7.238;2023-01-16T11:14:59;95718.41;;;5.27;85.81
16431;BME280;8325;49.284;7.238;2023-01-16T11:19:40;95703.88;;;5.26;85.89
16431;BME280;8325;49.284;7.238;2023-01-16T11:24:03;95693.91;;;5.30;85.63
16431;BME280;8325;49.284;7.238;2023-01-16T11:28:30;95670.63;;;5.30;85.38
16431;BME280;8325;49.284;7.238;2023-01-16T11:32:42;95665.91;;;5.20;85.24
16431;BME280;8325;49.284;7.238;2023-01-16T11:37:03;95641.63;;;5.21;86.18
16431;BME280;8325;49.284;7.238;2023-01-16T11:41:24;95636.38;;;5.28;85.30
16431;BME280;8325;49.284;7.238;2023-01-16T11:45:44;95623.22;;;5.29;85.47
16431;BME280;8325;49.284;7.238;2023-01-16T11:50:32;95629.22;;;5.30;86.08
16431;BME280;8325;49.284;7.238;2023-01-16T11:54:44;95619.91;;;5.22;87.91
16431;BME280;8325;49.284;7.238;2023-01-16T12:03:41;95592.28;;;5.16;90.64
16431;BME280;8325;49.284;7.238;2023-01-16T12:12:35;95567.25;;;5.10;88.93
16431;BME280;8325;49.284;7.238;2023-01-16T12:26:19;95549.91;;;5.36;85.71
16431;BME280;8325;49.284;7.238;2023-01-16T12:35:33;95522.16;;;5.43;84.54
16431;BME280;8325;49.284;7.238;2023-01-16T12:39:54;95515.53;;;5.47;84.17
16431;BME280;8325;49.284;7.238;2023-01-16T13:03:21;95442.53;;;5.57;82.63
16431;BME280;8325;49.284;7.238;2023-01-16T13:07:59;95423.78;;;5.61;82.30
16431;BME280;8325;49.284;7.238;2023-01-16T13:12:22;95401.91;;;5.57;82.84
16431;BME280;8325;49.284;7.238;2023-01-16T13:17:09;95386.38;;;5.57;81.68
16431;BME280;8325;49.284;7.238;2023-01-16T13:21:50;95382.00;;;5.58;82.34
16431;BME280;8325;49.284;7.238;2023-01-16T13:26:07;95377.38;;;5.60;83.56
16431;BME280;8325;49.284;7.238;2023-01-16T13:30:19;95366.97;;;5.48;84.32
16431;BME280;8325;49.284;7.238;2023-01-16T13:34:45;95342.97;;;5.41;85.54
16431;BME280;8325;49.284;7.238;2023-01-16T13:43:36;95312.66;;;5.29;88.12
16431;BME280;8325;49.284;7.238;2023-01-16T13:48:10;95296.34;;;5.17;90.39
16431;BME280;8325;49.284;7.238;2023-01-16T13:52:27;95296.81;;;4.96;92.36
16431;BME280;8325;49.284;7.238;2023-01-16T13:56:39;95284.25;;;4.81;94.46
16431;BME280;8325;49.284;7.238;2023-01-16T14:01:03;95275.03;;;4.85;94.97
16431;BME280;8325;49.284;7.238;2023-01-16T14:14:46;95249.72;;;4.57;97.91
16431;BME280;8325;49.284;7.238;2023-01-16T14:19:21;95261.50;;;4.53;99.58
16431;BME280;8325;49.284;7.238;2023-01-16T14:23:37;95283.38;;;4.50;99.79
16431;BME280;8325;49.284;7.238;2023-01-16T14:28:16;95270.38;;;4.38;100.00
16431;BME280;8325;49.284;7.238;2023-01-16T14:32:29;95269.66;;;4.31;100.00
16431;BME280;8325;49.284;7.238;2023-01-16T14:36:42;95259.75;;;4.28;100.00
16431;BME280;8325;49.284;7.238;2023-01-16T14:41:02;95266.34;;;4.24;100.00
16431;BME280;8325;49.284;7.238;2023-01-16T14:45:34;95265.03;;;4.15;100.00
16431;BME280;8325;49.284;7.238;2023-01-16T14:50:08;95275.66;;;4.07;100.00
16431;BME280;8325;49.284;7.238;2023-01-16T14:54:39;95258.81;;;4.04;100.00
16431;BME280;8325;49.284;7.238;2023-01-16T14:59:23;95268.63;;;4.14;100.00
16431;BME280;8325;49.284;7.238;2023-01-16T15:03:37;95265.97;;;4.02;100.00
16431;BME280;8325;49.284;7.238;2023-01-16T15:07:56;95289.44;;;4.01;100.00
16431;BME280;8325;49.284;7.238;2023-01-16T15:12:14;95279.88;;;4.01;100.00
16431;BME280;8325;49.284;7.238;2023-01-16T15:16:28;95267.59;;;3.97;100.00
16431;BME280;8325;49.284;7.238;2023-01-16T15:20:59;95286.38;;;3.85;100.00
16431;BME280;8325;49.284;7.238;2023-01-16T15:30:13;95311.97;;;3.87;100.00
16431;BME280;8325;49.284;7.238;2023-01-16T15:34:30;95317.00;;;3.82;100.00
16431;BME280;8325;49.284;7.238;2023-01-16T15:43:20;95341.50;;;3.73;100.00
16431;BME280;8325;49.284;7.238;2023-01-16T15:52:31;95370.25;;;3.76;100.00
16431;BME280;8325;49.284;7.238;2023-01-16T15:56:45;95349.25;;;3.66;100.00
16431;BME280;8325;49.284;7.238;2023-01-16T16:01:06;95355.78;;;3.68;100.00
16431;BME280;8325;49.284;7.238;2023-01-16T16:05:21;95362.38;;;3.64;100.00
16431;BME280;8325;49.284;7.238;2023-01-16T16:09:34;95371.16;;;3.57;100.00
16431;BME280;8325;49.284;7.238;2023-01-16T16:13:46;95377.91;;;3.58;100.00
16431;BME280;8325;49.284;7.238;2023-01-16T16:18:08;95388.06;;;3.53;100.00
16431;BME280;8325;49.284;7.238;2023-01-16T16:22:23;95386.72;;;3.43;100.00
16431;BME280;8325;49.284;7.238;2023-01-16T16:26:54;95388.31;;;3.38;100.00
16431;BME280;8325;49.284;7.238;2023-01-16T16:31:20;95384.34;;;3.35;100.00
16431;BME280;8325;49.284;7.238;2023-01-16T16:35:35;95393.09;;;3.34;100.00
16431;BME280;8325;49.284;7.238;2023-01-16T16:39:53;95396.13;;;3.25;100.00
16431;BME280;8325;49.284;7.238;2023-01-16T16:44:07;95399.06;;;3.28;100.00
16431;BME280;8325;49.284;7.238;2023-01-16T16:48:25;95396.13;;;3.25;100.00
16431;BME280;8325;49.284;7.238;2023-01-16T16:52:44;95397.53;;;3.14;100.00
16431;BME280;8325;49.284;7.238;2023-01-16T16:56:57;95411.41;;;3.19;100.00
16431;BME280;8325;49.284;7.238;2023-01-16T17:01:14;95420.97;;;3.12;100.00
16431;BME280;8325;49.284;7.238;2023-01-16T17:05:27;95435.66;;;2.98;100.00
16431;BME280;8325;49.284;7.238;2023-01-16T17:09:38;95442.22;;;2.94;100.00
16431;BME280;8325;49.284;7.238;2023-01-16T17:13:53;95449.59;;;2.91;100.00
16431;BME280;8325;49.284;7.238;2023-01-16T17:18:05;95461.50;;;2.79;100.00
16431;BME280;8325;49.284;7.238;2023-01-16T17:22:17;95479.97;;;2.62;100.00
16431;BME280;8325;49.284;7.238;2023-01-16T17:26:29;95501.16;;;2.58;100.00
16431;BME280;8325;49.284;7.238;2023-01-16T17:30:41;95503.72;;;2.44;100.00
16431;BME280;8325;49.284;7.238;2023-01-16T17:34:52;95509.84;;;2.30;100.00
16431;BME280;8325;49.284;7.238;2023-01-16T17:39:04;95523.72;;;2.29;100.00
16431;BME280;8325;49.284;7.238;2023-01-16T17:43:18;95518.97;;;2.26;100.00
16431;BME280;8325;49.284;7.238;2023-01-16T17:47:48;95528.66;;;2.30;100.00
16431;BME280;8325;49.284;7.238;2023-01-16T17:52:00;95539.97;;;2.36;100.00
16431;BME280;8325;49.284;7.238;2023-01-16T17:56:11;95548.94;;;2.47;100.00
16431;BME280;8325;49.284;7.238;2023-01-16T18:00:23;95564.16;;;2.48;100.00
16431;BME280;8325;49.284;7.238;2023-01-16T18:04:34;95584.78;;;2.55;100.00
16431;BME280;8325;49.284;7.238;2023-01-16T18:08:50;95586.00;;;2.66;100.00
16431;BME280;8325;49.284;7.238;2023-01-16T18:13:02;95592.97;;;2.79;100.00
16431;BME280;8325;49.284;7.238;2023-01-16T18:17:32;95610.00;;;2.86;100.00
16431;BME280;8325;49.284;7.238;2023-01-16T18:21:44;95620.34;;;2.93;100.00
16431;BME280;8325;49.284;7.238;2023-01-16T18:26:11;95638.19;;;3.01;100.00
16431;BME280;8325;49.284;7.238;2023-01-16T18:30:22;95637.19;;;2.95;100.00
16431;BME280;8325;49.284;7.238;2023-01-16T18:34:34;95640.75;;;3.01;100.00
16431;BME280;8325;49.284;7.238;2023-01-16T18:39:04;95655.06;;;3.04;100.00
16431;BME280;8325;49.284;7.238;2023-01-16T18:43:35;95658.63;;;3.03;100.00
16431;BME280;8325;49.284;7.238;2023-01-16T18:48:05;95678.47;;;3.02;100.00
16431;BME280;8325;49.284;7.238;2023-01-16T18:52:35;95677.88;;;3.07;100.00
16431;BME280;8325;49.284;7.238;2023-01-16T18:57:11;95694.13;;;3.00;100.00
16431;BME280;8325;49.284;7.238;2023-01-16T19:01:42;95709.81;;;3.06;100.00
16431;BME280;8325;49.284;7.238;2023-01-16T19:06:13;95705.44;;;2.99;100.00
16431;BME280;8325;49.284;7.238;2023-01-16T19:10:29;95715.38;;;3.03;100.00
16431;BME280;8325;49.284;7.238;2023-01-16T19:14:42;95706.47;;;3.12;100.00
16431;BME280;8325;49.284;7.238;2023-01-16T19:18:54;95711.78;;;3.04;100.00
16431;BME280;8325;49.284;7.238;2023-01-16T19:23:16;95714.75;;;3.07;100.00
16431;BME280;8325;49.284;7.238;2023-01-16T19:27:27;95710.81;;;3.11;100.00
16431;BME280;8325;49.284;7.238;2023-01-16T19:31:42;95717.34;;;3.07;100.00
16431;BME280;8325;49.284;7.238;2023-01-16T19:35:54;95723.28;;;3.08;100.00
16431;BME280;8325;49.284;7.238;2023-01-16T19:40:06;95728.06;;;3.11;100.00
16431;BME280;8325;49.284;7.238;2023-01-16T19:44:17;95740.94;;;3.11;100.00
16431;BME280;8325;49.284;7.238;2023-01-16T19:48:47;95749.31;;;3.13;100.00
16431;BME280;8325;49.284;7.238;2023-01-16T19:53:01;95752.69;;;3.20;99.51
16431;BME280;8325;49.284;7.238;2023-01-16T19:57:15;95744.75;;;3.15;99.86
16431;BME280;8325;49.284;7.238;2023-01-16T20:01:27;95753.84;;;3.11;99.42
16431;BME280;8325;49.284;7.238;2023-01-16T20:05:38;95743.75;;;3.16;98.06
16431;BME280;8325;49.284;7.238;2023-01-16T20:09:50;95754.28;;;3.14;98.42
16431;BME280;8325;49.284;7.238;2023-01-16T20:14:01;95780.84;;;3.15;98.00
16431;BME280;8325;49.284;7.238;2023-01-16T20:18:13;95773.69;;;3.10;98.09
16431;BME280;8325;49.284;7.238;2023-01-16T20:22:25;95801.66;;;3.07;97.84
16431;BME280;8325;49.284;7.238;2023-01-16T20:26:48;95805.44;;;3.11;97.57
16431;BME280;8325;49.284;7.238;2023-01-16T20:31:01;95812.59;;;3.09;98.19
16431;BME280;8325;49.284;7.238;2023-01-16T20:35:14;95822.50;;;3.05;97.71
16431;BME280;8325;49.284;7.238;2023-01-16T20:39:25;95823.69;;;3.09;96.74
16431;BME280;8325;49.284;7.238;2023-01-16T20:43:37;95835.19;;;3.07;97.16
16431;BME280;8325;49.284;7.238;2023-01-16T20:48:08;95844.47;;;3.01;96.58
16431;BME280;8325;49.284;7.238;2023-01-16T20:52:21;95844.31;;;3.03;96.16
16431;BME280;8325;49.284;7.238;2023-01-16T20:56:32;95857.19;;;3.03;95.31
16431;BME280;8325;49.284;7.238;2023-01-16T21:00:44;95874.47;;;3.02;95.38
16431;BME280;8325;49.284;7.238;2023-01-16T21:04:56;95861.34;;;2.97;94.99
16431;BME280;8325;49.284;7.238;2023-01-16T21:09:09;95876.22;;;3.02;94.10
16431;BME280;8325;49.284;7.238;2023-01-16T21:13:21;95885.16;;;2.99;95.42
16431;BME280;8325;49.284;7.238;2023-01-16T21:17:51;95900.00;;;2.97;94.08
16431;BME280;8325;49.284;7.238;2023-01-16T21:22:23;95900.03;;;3.04;94.45
16431;BME280;8325;49.284;7.238;2023-01-16T21:26:36;95916.91;;;2.99;94.35
16431;BME280;8325;49.284;7.238;2023-01-16T21:30:51;95916.91;;;2.99;93.41
16431;BME280;8325;49.284;7.238;2023-01-16T21:35:04;95907.78;;;3.04;93.33
16431;BME280;8325;49.284;7.238;2023-01-16T21:39:16;95927.22;;;2.99;94.08
16431;BME280;8325;49.284;7.238;2023-01-16T21:43:28;95927.63;;;3.03;92.95
16431;BME280;8325;49.284;7.238;2023-01-16T21:48:02;95933.78;;;3.02;93.35
16431;BME280;8325;49.284;7.238;2023-01-16T21:52:15;95941.88;;;2.99;93.08
16431;BME280;8325;49.284;7.238;2023-01-16T21:56:26;95964.53;;;3.04;93.38
16431;BME280;8325;49.284;7.238;2023-01-16T22:00:38;95947.22;;;2.97;92.41
16431;BME280;8325;49.284;7.238;2023-01-16T22:04:50;95955.56;;;2.99;92.26
16431;BME280;8325;49.284;7.238;2023-01-16T22:09:02;95951.38;;;2.98;92.35
16431;BME280;8325;49.284;7.238;2023-01-16T22:13:13;95956.34;;;2.93;92.37
16431;BME280;8325;49.284;7.238;2023-01-16T22:17:45;95952.75;;;2.94;92.09
16431;BME280;8325;49.284;7.238;2023-01-16T22:21:58;95952.97;;;2.93;91.55
16431;BME280;8325;49.284;7.238;2023-01-16T22:26:12;95955.31;;;2.88;91.76
